createdAt,value
2018-10-16T00:01:31.236Z,12.76
2018-10-16T00:04:00.664Z,12.74
2018-10-16T00:06:30.101Z,12.71
2018-10-16T00:08:59.673Z,12.68
2018-10-16T00:11:29.113Z,12.62
2018-10-16T00:13:58.529Z,12.59
2018-10-16T00:16:27.979Z,12.60
2018-10-16T00:18:57.411Z,12.60
2018-10-16T00:21:26.837Z,12.61
2018-10-16T00:23:56.375Z,12.62
2018-10-16T00:26:25.831Z,12.65
2018-10-16T00:28:55.334Z,12.66
2018-10-16T00:31:24.897Z,12.65
2018-10-16T00:33:54.329Z,12.65
2018-10-16T00:36:23.717Z,12.61
2018-10-16T00:38:53.163Z,12.58
2018-10-16T00:41:22.580Z,12.53
2018-10-16T00:43:51.979Z,12.48
2018-10-16T00:46:21.409Z,12.44
2018-10-16T00:48:50.822Z,12.41
2018-10-16T00:51:20.262Z,12.40
2018-10-16T00:53:49.669Z,12.35
2018-10-16T00:56:19.111Z,12.30
2018-10-16T00:58:48.508Z,12.24
2018-10-16T01:01:22.006Z,12.21
2018-10-16T01:03:51.434Z,12.18
2018-10-16T01:06:20.857Z,12.14
2018-10-16T01:08:50.272Z,12.10
2018-10-16T01:11:20.065Z,12.07
2018-10-16T01:13:49.460Z,12.04
2018-10-16T01:16:18.863Z,12.04
2018-10-16T01:18:48.285Z,12.01
2018-10-16T01:21:17.829Z,11.95
2018-10-16T01:23:47.504Z,11.92
2018-10-16T01:26:17.188Z,11.92
2018-10-16T01:28:47.131Z,11.92
2018-10-16T01:31:17.531Z,11.91
2018-10-16T01:33:47.206Z,11.91
2018-10-16T01:36:16.925Z,11.90
2018-10-16T01:38:46.585Z,11.86
2018-10-16T01:41:16.268Z,11.80
2018-10-16T01:43:45.908Z,11.74
2018-10-16T01:46:15.673Z,11.69
2018-10-16T01:48:45.373Z,11.63
2018-10-16T01:51:15.084Z,11.61
2018-10-16T01:53:44.746Z,11.60
2018-10-16T01:56:14.388Z,11.56
2018-10-16T01:58:44.032Z,11.54
2018-10-16T02:01:13.700Z,11.52
2018-10-16T02:03:43.336Z,11.50
2018-10-16T02:06:13.033Z,11.50
2018-10-16T02:08:42.744Z,11.51
2018-10-16T02:11:12.409Z,11.53
2018-10-16T02:13:42.141Z,11.57
2018-10-16T02:16:11.787Z,11.60
2018-10-16T02:18:41.480Z,11.62
2018-10-16T02:21:11.102Z,11.61
2018-10-16T02:23:40.808Z,11.60
2018-10-16T02:26:10.508Z,11.58
2018-10-16T02:28:40.164Z,11.55
2018-10-16T02:31:09.802Z,11.52
2018-10-16T02:33:39.492Z,11.50
2018-10-16T02:36:09.151Z,11.45
2018-10-16T02:38:38.841Z,11.43
2018-10-16T02:41:08.484Z,11.39
2018-10-16T02:43:38.129Z,11.37
2018-10-16T02:46:08.043Z,11.36
2018-10-16T02:48:38.106Z,11.35
2018-10-16T02:51:08.064Z,11.35
2018-10-16T02:53:37.785Z,11.33
2018-10-16T02:56:07.691Z,11.29
2018-10-16T02:58:37.380Z,11.26
2018-10-16T03:01:08.191Z,11.25
2018-10-16T03:03:39.237Z,11.24
2018-10-16T03:06:09.048Z,11.23
2018-10-16T03:08:38.915Z,11.23
2018-10-16T03:11:08.544Z,11.22
2018-10-16T03:13:38.193Z,11.21
2018-10-16T03:16:07.885Z,11.22
2018-10-16T03:18:37.564Z,11.22
2018-10-16T03:21:07.265Z,11.20
2018-10-16T03:23:36.896Z,11.19
2018-10-16T03:26:06.768Z,11.17
2018-10-16T03:28:36.404Z,11.15
2018-10-16T03:31:06.277Z,11.13
2018-10-16T03:33:35.985Z,11.13
2018-10-16T03:36:06.733Z,11.13
2018-10-16T03:38:36.387Z,11.10
2018-10-16T03:41:06.313Z,11.06
2018-10-16T03:43:39.095Z,11.02
2018-10-16T03:46:08.981Z,11.00
2018-10-16T03:48:38.628Z,10.99
2018-10-16T03:51:08.518Z,10.98
2018-10-16T03:53:38.155Z,10.95
2018-10-16T03:56:07.806Z,10.93
2018-10-16T03:58:43.479Z,10.91
2018-10-16T04:01:13.115Z,10.92
2018-10-16T04:03:42.772Z,10.94
2018-10-16T04:06:12.694Z,10.94
2018-10-16T04:08:42.301Z,10.96
2018-10-16T04:11:11.949Z,10.96
2018-10-16T04:13:41.788Z,10.97
2018-10-16T04:16:11.435Z,10.98
2018-10-16T04:18:41.215Z,11.00
2018-10-16T04:21:11.743Z,11.02
2018-10-16T04:23:42.556Z,11.02
2018-10-16T04:26:12.830Z,11.01
2018-10-16T04:28:42.505Z,11.01
2018-10-16T04:31:12.327Z,10.97
2018-10-16T04:33:41.979Z,10.97
2018-10-16T04:36:11.625Z,10.92
2018-10-16T04:38:41.263Z,10.86
2018-10-16T04:41:11.137Z,10.80
2018-10-16T04:43:40.740Z,10.76
2018-10-16T04:46:10.493Z,10.74
2018-10-16T04:48:40.187Z,10.72
2018-10-16T04:51:10.038Z,10.71
2018-10-16T04:53:39.728Z,10.74
2018-10-16T04:56:09.387Z,10.79
2018-10-16T04:58:40.330Z,10.83
2018-10-16T05:01:10.353Z,10.83
2018-10-16T05:03:40.043Z,10.83
2018-10-16T05:06:09.772Z,10.82
2018-10-16T05:08:39.522Z,10.82
2018-10-16T05:11:09.168Z,10.84
2018-10-16T05:13:38.810Z,10.82
2018-10-16T05:16:08.708Z,10.80
2018-10-16T05:18:38.360Z,10.80
2018-10-16T05:21:08.029Z,10.78
2018-10-16T05:23:37.948Z,10.78
2018-10-16T05:26:07.927Z,10.77
2018-10-16T05:28:37.621Z,10.78
2018-10-16T05:31:07.696Z,10.78
2018-10-16T05:33:37.672Z,10.75
2018-10-16T05:36:08.375Z,10.72
2018-10-16T05:38:38.088Z,10.68
2018-10-16T05:41:08.158Z,10.68
2018-10-16T05:43:37.812Z,10.67
2018-10-16T05:46:07.436Z,10.70
2018-10-16T05:48:37.105Z,10.74
2018-10-16T05:51:06.926Z,10.79
2018-10-16T05:53:36.539Z,10.84
2018-10-16T05:56:07.222Z,10.90
2018-10-16T05:58:36.900Z,10.95
2018-10-16T06:01:06.651Z,11.03
2018-10-16T06:03:36.390Z,11.12
2018-10-16T06:06:06.243Z,11.26
2018-10-16T06:08:35.932Z,11.47
2018-10-16T06:11:06.039Z,11.77
2018-10-16T06:13:35.834Z,12.11
2018-10-16T06:16:05.729Z,12.46
2018-10-16T06:18:35.345Z,12.84
2018-10-16T06:21:05.107Z,13.23
2018-10-16T06:23:34.812Z,13.60
2018-10-16T06:26:04.626Z,14.01
2018-10-16T06:28:34.258Z,14.44
2018-10-16T06:31:03.920Z,14.90
2018-10-16T06:33:33.664Z,15.40
2018-10-16T06:36:03.382Z,15.91
2018-10-16T06:38:33.044Z,16.41
2018-10-16T06:41:02.998Z,16.88
2018-10-16T06:43:32.533Z,17.33
2018-10-16T06:46:02.269Z,17.72
2018-10-16T06:48:32.137Z,18.10
2018-10-16T06:51:01.576Z,18.47
2018-10-16T06:53:31.236Z,18.84
2018-10-16T06:56:00.909Z,19.22
2018-10-16T06:58:30.532Z,19.63
2018-10-16T07:01:00.208Z,20.08
2018-10-16T07:03:30.398Z,20.47
2018-10-16T07:06:00.119Z,20.90
2018-10-16T07:08:30.234Z,21.31
2018-10-16T07:11:00.313Z,21.69
2018-10-16T07:13:30.334Z,22.03
2018-10-16T07:16:00.641Z,22.35
2018-10-16T07:18:30.765Z,22.59
2018-10-16T07:21:01.010Z,22.85
2018-10-16T07:23:31.176Z,23.17
2018-10-16T07:26:01.188Z,23.46
2018-10-16T07:28:30.903Z,23.61
2018-10-16T07:31:00.572Z,23.76
2018-10-16T07:33:30.228Z,24.09
2018-10-16T07:36:00.036Z,24.39
2018-10-16T07:38:30.140Z,24.66
2018-10-16T07:41:00.123Z,24.94
2018-10-16T07:43:30.631Z,25.18
2018-10-16T07:46:00.804Z,25.46
2018-10-16T07:48:30.841Z,25.69
2018-10-16T07:51:01.160Z,25.87
2018-10-16T07:53:31.345Z,25.99
2018-10-16T07:56:01.463Z,26.05
2018-10-16T07:58:31.625Z,26.16
2018-10-16T08:01:01.612Z,26.28
2018-10-16T08:03:31.838Z,26.39
2018-10-16T08:06:01.924Z,26.52
2018-10-16T08:08:31.825Z,26.57
2018-10-16T08:11:01.980Z,26.78
2018-10-16T08:13:32.239Z,27.03
2018-10-16T08:16:02.362Z,27.16
2018-10-16T08:18:32.669Z,27.36
2018-10-16T08:21:02.879Z,27.54
2018-10-16T08:23:33.060Z,27.64
2018-10-16T08:26:03.583Z,27.75
2018-10-16T08:28:33.668Z,27.69
2018-10-16T08:31:03.859Z,27.57
2018-10-16T08:33:33.921Z,27.39
2018-10-16T08:36:03.954Z,27.33
2018-10-16T08:38:56.618Z,27.30
2018-10-16T08:41:33.943Z,27.36
2018-10-16T08:45:21.820Z,27.29
2018-10-16T08:48:08.450Z,27.49
2018-10-16T08:50:55.018Z,27.47
2018-10-16T08:53:25.069Z,27.30
2018-10-16T08:55:55.229Z,26.98
2018-10-16T08:58:25.306Z,26.80
2018-10-16T09:00:55.409Z,26.91
2018-10-16T09:03:25.461Z,27.04
2018-10-16T09:05:55.416Z,27.25
2018-10-16T09:08:25.549Z,27.28
2018-10-16T09:10:55.621Z,27.27
2018-10-16T09:13:25.641Z,27.26
2018-10-16T09:15:55.703Z,27.35
2018-10-16T09:18:25.980Z,27.50
2018-10-16T09:20:56.512Z,27.69
2018-10-16T09:23:26.436Z,27.85
2018-10-16T09:25:56.790Z,28.04
2018-10-16T09:28:26.748Z,28.18
2018-10-16T09:30:56.823Z,28.34
2018-10-16T09:33:26.976Z,28.27
2018-10-16T09:35:57.089Z,28.21
2018-10-16T09:38:27.120Z,28.26
2018-10-16T09:40:57.411Z,28.27
2018-10-16T09:43:27.558Z,28.24
2018-10-16T09:45:57.710Z,27.98
2018-10-16T09:48:27.788Z,27.70
2018-10-16T09:50:57.734Z,27.76
2018-10-16T09:53:28.713Z,27.87
2018-10-16T09:55:58.689Z,27.81
2018-10-16T09:58:28.805Z,27.74
2018-10-16T10:01:04.081Z,27.93
2018-10-16T10:03:33.992Z,28.33
2018-10-16T10:06:04.251Z,28.60
2018-10-16T10:08:34.271Z,28.67
2018-10-16T10:11:04.455Z,28.49
2018-10-16T10:13:34.506Z,28.27
2018-10-16T10:16:04.481Z,28.17
2018-10-16T10:18:34.431Z,28.12
2018-10-16T10:21:04.616Z,28.12
2018-10-16T10:23:34.623Z,28.01
2018-10-16T10:26:04.846Z,27.90
2018-10-16T10:28:34.998Z,27.59
2018-10-16T10:31:05.252Z,27.33
2018-10-16T10:33:35.275Z,27.05
2018-10-16T10:36:05.437Z,26.69
2018-10-16T10:38:35.574Z,26.52
2018-10-16T10:41:05.857Z,26.48
2018-10-16T10:43:35.982Z,26.46
2018-10-16T10:46:06.594Z,26.43
2018-10-16T10:48:37.044Z,26.25
2018-10-16T10:51:08.187Z,25.92
2018-10-16T10:53:38.242Z,25.46
2018-10-16T10:56:08.560Z,24.98
2018-10-16T10:58:38.803Z,24.70
2018-10-16T11:01:08.917Z,24.57
2018-10-16T11:03:39.353Z,24.29
2018-10-16T11:06:09.698Z,23.96
2018-10-16T11:08:40.487Z,23.61
2018-10-16T11:11:10.686Z,23.25
2018-10-16T11:13:40.771Z,22.90
2018-10-16T11:16:11.233Z,22.61
2018-10-16T11:18:41.243Z,22.35
2018-10-16T11:21:11.346Z,22.10
2018-10-16T11:23:41.637Z,21.90
2018-10-16T11:26:12.270Z,21.78
2018-10-16T11:28:42.933Z,21.67
2018-10-16T11:31:13.028Z,21.63
2018-10-16T11:33:43.152Z,21.67
2018-10-16T11:36:13.305Z,21.75
2018-10-16T11:38:43.315Z,21.81
2018-10-16T11:41:13.309Z,21.87
2018-10-16T11:43:43.513Z,21.96
2018-10-16T11:46:13.564Z,22.07
2018-10-16T11:48:44.136Z,22.26
2018-10-16T11:51:14.306Z,22.42
2018-10-16T11:53:44.294Z,22.66
2018-10-16T11:56:14.531Z,22.91
2018-10-16T11:58:44.228Z,23.10
2018-10-16T12:01:14.310Z,23.20
2018-10-16T12:03:44.148Z,23.29
2018-10-16T12:06:13.954Z,23.23
2018-10-16T12:08:43.580Z,23.19
2018-10-16T12:11:13.327Z,23.14
2018-10-16T12:13:42.855Z,23.07
2018-10-16T12:16:12.527Z,23.06
2018-10-16T12:19:03.278Z,23.01
2018-10-16T12:21:32.895Z,22.90
2018-10-16T12:24:02.775Z,22.81
2018-10-16T12:26:32.680Z,22.70
2018-10-16T12:29:02.342Z,22.63
2018-10-16T12:31:32.028Z,22.61
2018-10-16T12:34:01.665Z,22.56
2018-10-16T12:36:32.506Z,22.61
2018-10-16T12:39:02.230Z,22.65
2018-10-16T12:41:31.851Z,22.66
2018-10-16T12:44:01.534Z,22.60
2018-10-16T12:46:31.313Z,22.62
2018-10-16T12:49:01.186Z,22.72
2018-10-16T12:51:31.155Z,22.76
2018-10-16T12:54:01.156Z,22.73
2018-10-16T12:56:30.779Z,22.71
2018-10-16T12:59:00.689Z,22.67
2018-10-16T13:01:30.468Z,22.65
2018-10-16T13:05:03.902Z,22.64
2018-10-16T13:07:36.177Z,22.69
2018-10-16T13:10:15.860Z,22.65
2018-10-16T13:12:46.336Z,22.58
2018-10-16T13:15:16.881Z,22.57
2018-10-16T13:17:47.908Z,22.47
2018-10-16T13:20:18.233Z,22.41
2018-10-16T13:22:49.105Z,22.35
2018-10-16T13:25:19.289Z,22.26
2018-10-16T13:27:49.406Z,22.24
2018-10-16T13:30:20.261Z,22.20
2018-10-16T13:32:51.387Z,22.18
2018-10-16T13:35:22.644Z,22.15
2018-10-16T13:37:53.264Z,22.13
2018-10-16T13:40:23.532Z,22.06
2018-10-16T13:42:54.092Z,21.94
2018-10-16T13:45:24.599Z,21.80
2018-10-16T13:47:54.743Z,21.70
2018-10-16T13:50:25.258Z,21.55
2018-10-16T13:52:55.563Z,21.45
2018-10-16T13:55:25.676Z,21.34
2018-10-16T13:57:55.798Z,21.24
2018-10-16T14:00:25.962Z,21.14
2018-10-16T14:02:56.780Z,21.06
2018-10-16T14:05:26.910Z,20.96
2018-10-16T14:07:57.147Z,20.89
2018-10-16T14:10:27.128Z,20.81
2018-10-16T14:12:57.570Z,20.75
2018-10-16T14:15:28.428Z,20.71
2018-10-16T14:17:58.404Z,20.66
2018-10-16T14:20:29.426Z,20.60
2018-10-16T14:22:59.511Z,20.54
2018-10-16T14:25:30.597Z,20.48
2018-10-16T14:28:00.817Z,20.41
2018-10-16T14:30:30.705Z,20.34
2018-10-16T14:33:00.869Z,20.28
2018-10-16T14:35:33.182Z,20.22
2018-10-16T14:38:05.095Z,20.16
2018-10-16T14:40:36.548Z,20.10
2018-10-16T14:43:07.268Z,20.02
2018-10-16T14:45:37.626Z,19.93
2018-10-16T14:48:07.680Z,19.84
2018-10-16T14:50:37.946Z,19.75
2018-10-16T14:53:07.976Z,19.67
2018-10-16T14:55:38.120Z,19.61
2018-10-16T14:58:08.256Z,19.54
2018-10-16T15:00:38.400Z,19.47
2018-10-16T15:03:08.447Z,19.41
2018-10-16T15:05:38.920Z,19.34
2018-10-16T15:08:09.403Z,19.26
2018-10-16T15:10:39.498Z,19.18
2018-10-16T15:13:10.332Z,19.11
2018-10-16T15:15:40.375Z,19.07
2018-10-16T15:18:10.351Z,19.02
2018-10-16T15:20:40.371Z,18.95
2018-10-16T15:23:10.604Z,18.90
2018-10-16T15:25:40.291Z,18.85
2018-10-16T15:28:10.024Z,18.78
2018-10-16T15:30:39.608Z,18.69
2018-10-16T15:33:10.177Z,18.60
2018-10-16T15:35:39.969Z,18.54
2018-10-16T15:38:09.783Z,18.48
2018-10-16T15:40:39.458Z,18.41
2018-10-16T15:43:09.163Z,18.35
2018-10-16T15:45:38.907Z,18.28
2018-10-16T15:48:10.679Z,18.20
2018-10-16T15:50:40.470Z,18.13
2018-10-16T15:53:10.220Z,18.04
2018-10-16T15:55:40.052Z,17.95
2018-10-16T15:58:09.872Z,17.87
2018-10-16T16:00:39.595Z,17.81
2018-10-16T16:03:09.338Z,17.72
2018-10-16T16:05:39.008Z,17.62
2018-10-16T16:08:08.851Z,17.53
2018-10-16T16:10:38.568Z,17.47
2018-10-16T16:13:09.027Z,17.39
2018-10-16T16:15:38.813Z,17.30
2018-10-16T16:18:08.865Z,17.23
2018-10-16T16:20:38.468Z,17.17
2018-10-16T16:23:08.280Z,17.10
2018-10-16T16:25:38.075Z,17.01
2018-10-16T16:28:07.836Z,16.95
2018-10-16T16:30:37.517Z,16.89
2018-10-16T16:33:07.593Z,16.84
2018-10-16T16:35:37.300Z,16.78
2018-10-16T16:38:07.300Z,16.75
2018-10-16T16:40:36.989Z,16.67
2018-10-16T16:43:06.728Z,16.60
2018-10-16T16:45:36.453Z,16.51
2018-10-16T16:48:06.396Z,16.45
2018-10-16T16:50:36.035Z,16.42
2018-10-16T16:53:05.813Z,16.37
2018-10-16T16:55:35.608Z,16.35
2018-10-16T16:58:05.677Z,16.30
2018-10-16T17:00:35.497Z,16.22
2018-10-16T17:03:05.455Z,16.15
2018-10-16T17:05:35.164Z,16.07
2018-10-16T17:08:05.238Z,16.01
2018-10-16T17:10:35.002Z,15.97
2018-10-16T17:13:04.818Z,15.95
2018-10-16T17:15:34.583Z,15.95
2018-10-16T17:18:04.260Z,15.92
2018-10-16T17:20:33.959Z,15.88
2018-10-16T17:23:03.672Z,15.85
2018-10-16T17:25:33.863Z,15.83
2018-10-16T17:28:03.261Z,15.78
2018-10-16T17:30:32.965Z,15.74
2018-10-16T17:33:02.890Z,15.70
2018-10-16T17:35:32.563Z,15.66
2018-10-16T17:38:02.274Z,15.62
2018-10-16T17:40:32.062Z,15.61
2018-10-16T17:43:01.799Z,15.57
2018-10-16T17:45:31.499Z,15.54
2018-10-16T17:48:01.361Z,15.51
2018-10-16T17:50:31.024Z,15.46
2018-10-16T17:53:01.338Z,15.41
2018-10-16T17:55:31.096Z,15.37
2018-10-16T17:58:00.983Z,15.38
2018-10-16T18:00:30.636Z,15.42
2018-10-16T18:03:00.400Z,15.47
2018-10-16T18:05:30.132Z,15.51
2018-10-16T18:07:59.836Z,15.53
2018-10-16T18:10:29.613Z,15.54
2018-10-16T18:12:59.325Z,15.53
2018-10-16T18:15:29.088Z,15.51
2018-10-16T18:17:58.848Z,15.47
2018-10-16T18:20:28.589Z,15.42
2018-10-16T18:22:58.273Z,15.38
2018-10-16T18:25:28.015Z,15.31
2018-10-16T18:27:57.778Z,15.23
2018-10-16T18:30:27.518Z,15.13
2018-10-16T18:32:57.351Z,15.03
2018-10-16T18:35:27.109Z,14.95
2018-10-16T18:37:56.846Z,14.86
2018-10-16T18:40:26.591Z,14.79
2018-10-16T18:42:56.332Z,14.71
2018-10-16T18:45:26.190Z,14.67
2018-10-16T18:47:56.024Z,14.61
2018-10-16T18:50:26.243Z,14.55
2018-10-16T18:52:55.984Z,14.51
2018-10-16T18:55:25.787Z,14.51
2018-10-16T18:57:55.563Z,14.49
2018-10-16T19:00:25.320Z,14.51
2018-10-16T19:02:55.123Z,14.54
2018-10-16T19:05:25.029Z,14.52
2018-10-16T19:07:54.719Z,14.52
2018-10-16T19:10:24.420Z,14.50
2018-10-16T19:12:54.149Z,14.50
2018-10-16T19:15:23.863Z,14.49
2018-10-16T19:17:53.610Z,14.48
2018-10-16T19:20:23.296Z,14.46
2018-10-16T19:29:55.294Z,14.32
2018-10-16T19:32:25.081Z,14.28
2018-10-16T19:34:54.732Z,14.30
2018-10-16T19:37:24.475Z,14.30
2018-10-16T19:39:54.237Z,14.31
2018-10-16T19:42:23.984Z,14.31
2018-10-16T19:44:53.675Z,14.30
2018-10-16T19:47:23.445Z,14.27
2018-10-16T19:49:53.160Z,14.26
2018-10-16T19:52:22.968Z,14.25
2018-10-16T19:54:52.712Z,14.24
2018-10-16T19:57:22.540Z,14.23
2018-10-16T19:59:52.375Z,14.20
2018-10-16T20:02:22.072Z,14.20
2018-10-16T20:04:51.888Z,14.19
2018-10-16T20:07:21.821Z,14.17
2018-10-16T20:09:51.632Z,14.14
2018-10-16T20:12:21.466Z,14.11
2018-10-16T20:14:51.240Z,14.10
2018-10-16T20:17:21.112Z,14.05
2018-10-16T20:19:50.939Z,14.04
2018-10-16T20:22:20.651Z,14.04
2018-10-16T20:24:50.480Z,14.04
2018-10-16T20:27:20.137Z,14.08
2018-10-16T20:29:49.905Z,14.11
2018-10-16T20:32:19.605Z,14.15
2018-10-16T20:34:49.340Z,14.16
2018-10-16T20:37:19.110Z,14.16
2018-10-16T20:39:48.956Z,14.17
2018-10-16T20:42:18.671Z,14.23
2018-10-16T20:44:48.562Z,14.30
2018-10-16T20:47:18.273Z,14.36
2018-10-16T20:49:48.008Z,14.40
2018-10-16T20:52:17.742Z,14.44
2018-10-16T20:54:47.535Z,14.44
2018-10-16T20:57:17.292Z,14.45
2018-10-16T20:59:48.290Z,14.45
2018-10-16T21:02:18.600Z,14.40
2018-10-16T21:04:48.774Z,14.36
2018-10-16T21:07:18.642Z,14.31
2018-10-16T21:09:48.560Z,14.23
2018-10-16T21:12:18.252Z,14.12
2018-10-16T21:14:48.085Z,14.02
2018-10-16T21:17:17.777Z,13.91
2018-10-16T21:19:47.505Z,13.84
2018-10-16T21:22:17.223Z,13.78
2018-10-16T21:24:46.980Z,13.75
2018-10-16T21:27:16.706Z,13.76
2018-10-16T21:29:46.603Z,13.79
2018-10-16T21:32:26.334Z,13.78
2018-10-16T21:34:56.038Z,13.73
2018-10-16T21:37:25.722Z,13.65
2018-10-16T21:39:55.408Z,13.55
2018-10-16T21:42:25.145Z,13.43
2018-10-16T21:44:54.848Z,13.34
2018-10-16T21:47:24.482Z,13.26
2018-10-16T21:49:54.132Z,13.19
2018-10-16T21:52:23.809Z,13.09
2018-10-16T21:54:53.484Z,13.04
2018-10-16T21:57:23.115Z,12.98
2018-10-16T21:59:52.807Z,12.90
2018-10-16T22:02:27.704Z,12.82
2018-10-16T22:04:57.416Z,12.76
2018-10-16T22:07:27.119Z,12.73
2018-10-16T22:09:56.756Z,12.67
2018-10-16T22:12:26.432Z,12.61
2018-10-16T22:14:56.103Z,12.57
2018-10-16T22:17:25.811Z,12.55
2018-10-16T22:19:55.452Z,12.52
2018-10-16T22:22:25.181Z,12.48
2018-10-16T22:24:55.018Z,12.45
2018-10-16T22:27:24.667Z,12.44
2018-10-16T22:29:54.305Z,12.40
2018-10-16T22:32:23.983Z,12.36
2018-10-16T22:34:53.695Z,12.36
2018-10-16T22:37:23.350Z,12.35
2018-10-16T22:39:52.985Z,12.36
2018-10-16T22:42:22.663Z,12.40
2018-10-16T22:44:52.310Z,12.45
2018-10-16T22:47:22.005Z,12.46
2018-10-16T22:49:51.671Z,12.45
2018-10-16T22:52:21.365Z,12.47
2018-10-16T22:54:50.993Z,12.49
2018-10-16T22:57:20.636Z,12.47
2018-10-16T22:59:50.280Z,12.45
2018-10-16T23:02:19.950Z,12.44
2018-10-16T23:04:49.607Z,12.41
2018-10-16T23:07:19.280Z,12.38
2018-10-16T23:09:48.912Z,12.33
2018-10-16T23:12:18.583Z,12.28
2018-10-16T23:14:48.225Z,12.22
2018-10-16T23:17:17.873Z,12.16
2018-10-16T23:19:47.621Z,12.12
2018-10-16T23:22:17.276Z,12.12
2018-10-16T23:24:46.957Z,12.19
2018-10-16T23:27:16.648Z,12.23
2018-10-16T23:29:46.386Z,12.23
2018-10-16T23:32:16.036Z,12.19
2018-10-16T23:34:45.692Z,12.14
2018-10-16T23:37:15.421Z,12.11
2018-10-16T23:39:44.995Z,12.10
2018-10-16T23:42:14.708Z,12.07
2018-10-16T23:44:44.375Z,12.03
2018-10-16T23:47:14.072Z,12.04
2018-10-16T23:49:43.688Z,12.06
2018-10-16T23:52:13.313Z,12.09
2018-10-16T23:54:43.046Z,12.11
2018-10-16T23:57:12.752Z,12.13
2018-10-16T23:59:42.419Z,12.11
